Terminal Aerodrome Forecast
Issued by NWS Shreveport, LA

Home | Current Version | Previous Version | Text Only | Print | Product List | Glossary On
Versions: 1 2 3 4 5 6 7 8 9 10 11 12 13 14 15 16 17
096
FTUS44 KSHV 171506 AAB
TAFSHV
TAF AMD
KSHV 171506Z 1715/1812 33015G25KT P6SM VCTS SCT020 OVC040CB
      TEMPO 1715/1716 5SM TSRA BR OVC015CB
     FM171600 VRB04KT P6SM VCSH BKN040
      TEMPO 1717/1719 01010KT SHRA OVC025
     FM172200 24008KT P6SM SCT040 BKN120
     FM180200 19004KT P6SM BKN120=

USA.gov is the U.S. government's official web portal to all federal, state and local government web resources and services.